Time;durP1;ratioP1;P1;durP2;ratioP2;P2;SDS_P1;SDS_P2;PMS_P1;PMS_P2;Temp;Humidity;BMP_temperature;BMP_pressure;BME280_temperature;BME280_humidity;BME280_pressure;Samples;Min_cycle;Max_cycle;Signal;HPM_P1;HPM_P2
2022/03/01 00:01:09;;;;;;;25.52;12.60;;;;;;;-3.14;100.00;95609.91;5116972;27;20039;-47
2022/03/01 00:03:36;;;;;;;30.35;12.60;;;;;;;-3.10;100.00;95619.72;5110936;27;20740;-48
2022/03/01 00:06:03;;;;;;;17.95;10.05;;;;;;;-3.16;100.00;95588.84;5110176;27;20108;-49
2022/03/01 00:08:30;;;;;;;17.20;7.22;;;;;;;-3.09;100.00;95605.25;5109418;27;20044;-47
2022/03/01 00:10:57;;;;;;;19.02;9.13;;;;;;;-3.03;100.00;95609.81;5111162;27;20088;-49
2022/03/01 00:13:24;;;;;;;24.58;9.88;;;;;;;-3.00;100.00;95604.47;5111655;27;20105;-48
2022/03/01 00:15:51;;;;;;;21.80;9.88;;;;;;;-3.00;100.00;95593.47;5108767;27;20043;-50
2022/03/01 00:18:17;;;;;;;26.88;8.52;;;;;;;-2.93;100.00;95605.56;5111864;27;20459;-51
2022/03/01 00:20:44;;;;;;;17.45;9.35;;;;;;;-2.93;100.00;95602.22;5113769;27;20593;-50
2022/03/01 00:23:11;;;;;;;25.50;10.85;;;;;;;-2.94;100.00;95603.16;5115129;27;20039;-48
2022/03/01 00:25:38;;;;;;;21.00;9.60;;;;;;;-2.87;100.00;95604.25;5109634;27;20056;-47
2022/03/01 00:28:04;;;;;;;24.85;11.05;;;;;;;-2.86;100.00;95599.94;5108489;27;20046;-47
2022/03/01 00:30:31;;;;;;;36.25;14.00;;;;;;;-3.01;100.00;95587.56;5110034;27;20039;-48
2022/03/01 00:32:58;;;;;;;25.08;10.95;;;;;;;-2.91;100.00;95598.59;5107081;27;20052;-48
2022/03/01 00:35:25;;;;;;;27.45;10.75;;;;;;;-2.93;99.98;95590.28;5108010;27;20480;-50
2022/03/01 00:37:51;;;;;;;26.42;12.02;;;;;;;-2.99;99.68;95585.72;5115214;27;20043;-46
2022/03/01 00:40:18;;;;;;;29.75;12.45;;;;;;;-3.02;99.91;95588.50;5115040;27;20043;-48
2022/03/01 00:42:45;;;;;;;31.70;12.90;;;;;;;-3.09;100.00;95584.84;5108447;27;20107;-47
2022/03/01 00:45:12;;;;;;;18.80;9.75;;;;;;;-3.08;100.00;95591.53;5109078;27;20043;-47
2022/03/01 00:47:41;;;;;;;15.68;8.88;;;;;;;-3.11;100.00;95586.72;5112028;27;20043;-46
2022/03/01 00:50:08;;;;;;;18.25;8.38;;;;;;;-3.17;100.00;95579.56;5108043;27;20478;-48
2022/03/01 00:52:35;;;;;;;14.57;7.47;;;;;;;-3.22;100.00;95581.69;5108810;27;20048;-46
2022/03/01 00:55:06;;;;;;;12.45;5.90;;;;;;;-3.27;100.00;95577.00;5107485;27;20043;-48
2022/03/01 00:57:32;;;;;;;14.88;6.65;;;;;;;-3.35;100.00;95580.19;5106893;27;20053;-49
2022/03/01 00:59:59;;;;;;;16.50;7.43;;;;;;;-3.46;100.00;95568.31;5108965;27;20043;-46
2022/03/01 01:02:26;;;;;;;23.73;8.95;;;;;;;-3.50;100.00;95576.34;5107358;27;20043;-47
2022/03/01 01:04:53;;;;;;;14.13;7.47;;;;;;;-3.55;100.00;95565.72;5109032;27;20073;-47
2022/03/01 01:07:20;;;;;;;11.85;6.60;;;;;;;-3.59;100.00;95569.44;5111130;27;20039;-49
2022/03/01 01:09:47;;;;;;;11.27;6.40;;;;;;;-3.63;100.00;95565.53;5111102;27;20473;-48
2022/03/01 01:12:14;;;;;;;15.13;8.63;;;;;;;-3.72;100.00;95567.91;5108372;27;20190;-47
2022/03/01 01:14:40;;;;;;;9.05;4.78;;;;;;;-3.82;100.00;95567.03;5107504;27;20398;-47
2022/03/01 01:17:07;;;;;;;8.25;5.55;;;;;;;-3.92;100.00;95566.97;5107390;27;20051;-48
2022/03/01 01:19:34;;;;;;;13.52;5.53;;;;;;;-3.88;100.00;95567.53;5108346;27;20840;-48
2022/03/01 01:24:47;;;;;;;8.50;5.45;;;;;;;-4.00;100.00;95563.41;5106072;27;20039;-52
2022/03/01 01:27:14;;;;;;;9.10;5.10;;;;;;;-4.09;100.00;95570.03;5113955;27;20412;-48
2022/03/01 01:29:40;;;;;;;12.38;4.97;;;;;;;-4.13;100.00;95569.47;5108242;27;20417;-48
2022/03/01 01:32:08;;;;;;;13.18;5.47;;;;;;;-4.19;100.00;95569.19;5105394;27;20055;-49
2022/03/01 01:34:35;;;;;;;10.75;4.75;;;;;;;-4.22;100.00;95570.22;5107249;27;20044;-47
2022/03/01 01:37:02;;;;;;;11.75;4.60;;;;;;;-4.26;100.00;95561.22;5107684;27;20055;-47
2022/03/01 01:39:28;;;;;;;7.32;4.43;;;;;;;-4.32;100.00;95559.13;5105731;27;20802;-50
2022/03/01 01:41:55;;;;;;;13.25;5.63;;;;;;;-4.37;100.00;95566.34;5106907;27;20043;-49
2022/03/01 01:44:22;;;;;;;9.75;5.20;;;;;;;-4.43;100.00;95560.81;5107201;27;20035;-52
2022/03/01 01:46:49;;;;;;;10.52;5.10;;;;;;;-4.56;100.00;95552.50;5107792;27;20043;-48
2022/03/01 01:49:16;;;;;;;13.50;4.60;;;;;;;-4.54;100.00;95553.19;5106709;27;20428;-49
2022/03/01 01:51:42;;;;;;;7.40;4.25;;;;;;;-4.64;100.00;95549.78;5113629;27;20864;-50
2022/03/01 01:54:09;;;;;;;8.68;5.22;;;;;;;-4.73;100.00;95550.50;5106210;27;20050;-49
2022/03/01 01:56:36;;;;;;;11.57;5.85;;;;;;;-4.78;100.00;95547.50;5106488;27;20042;-48
2022/03/01 01:59:03;;;;;;;10.00;5.20;;;;;;;-4.83;100.00;95546.09;5088822;27;20050;-47
2022/03/01 02:01:30;;;;;;;10.43;5.63;;;;;;;-4.81;100.00;95548.53;5110593;27;20054;-47
2022/03/01 02:03:59;;;;;;;9.77;5.05;;;;;;;-4.83;100.00;95546.09;5110933;27;20043;-49
2022/03/01 02:06:27;;;;;;;10.13;6.22;;;;;;;-4.86;100.00;95541.28;5108071;27;20043;-48
2022/03/01 02:08:54;;;;;;;10.23;6.20;;;;;;;-4.93;100.00;95549.47;5107359;27;20058;-47
2022/03/01 02:11:21;;;;;;;9.95;5.35;;;;;;;-4.98;100.00;95542.22;5106312;27;20092;-48
2022/03/01 02:13:47;;;;;;;7.57;5.18;;;;;;;-5.00;100.00;95539.00;5110110;27;20051;-48
2022/03/01 02:16:14;;;;;;;10.65;6.28;;;;;;;-5.02;100.00;95536.56;5091267;27;20062;-48
2022/03/01 02:18:42;;;;;;;14.73;8.20;;;;;;;-5.02;100.00;95530.69;5107042;27;20496;-50
2022/03/01 02:21:08;;;;;;;12.73;6.43;;;;;;;-5.02;100.00;95534.03;5109121;27;20047;-47
2022/03/01 02:23:36;;;;;;;11.48;6.22;;;;;;;-5.09;100.00;95525.25;5113333;27;20066;-48
2022/03/01 02:26:02;;;;;;;10.93;6.80;;;;;;;-5.06;100.00;95529.28;5108195;27;20493;-49
2022/03/01 02:28:30;;;;;;;10.73;5.22;;;;;;;-5.06;100.00;95519.13;5107463;27;20131;-48
2022/03/01 02:30:56;;;;;;;12.00;5.75;;;;;;;-5.11;100.00;95521.19;5105947;27;20100;-48
2022/03/01 02:33:23;;;;;;;10.52;5.68;;;;;;;-5.20;100.00;95515.91;5105443;27;20044;-48
2022/03/01 02:35:50;;;;;;;12.02;6.20;;;;;;;-5.30;100.00;95509.91;5107172;27;20043;-48
2022/03/01 02:38:17;;;;;;;9.68;5.88;;;;;;;-5.29;100.00;95509.00;5106430;27;20448;-47
2022/03/01 02:40:43;;;;;;;13.02;6.65;;;;;;;-5.33;100.00;95494.94;5112049;27;20654;-47
2022/03/01 02:43:10;;;;;;;5.93;4.00;;;;;;;-5.32;100.00;95494.00;5106963;27;20093;-48
2022/03/01 02:45:37;;;;;;;7.55;4.50;;;;;;;-5.40;100.00;95491.25;5108480;27;20084;-47
2022/03/01 02:48:04;;;;;;;14.25;6.43;;;;;;;-5.52;100.00;95492.97;5105995;28;20036;-47
2022/03/01 02:50:31;;;;;;;20.38;8.45;;;;;;;-5.64;100.00;95488.81;5107209;28;20056;-47
2022/03/01 02:52:57;;;;;;;13.07;6.97;;;;;;;-5.64;100.00;95483.72;5104881;28;20047;-47
2022/03/01 02:55:24;;;;;;;7.72;4.65;;;;;;;-5.62;100.00;95481.88;5110484;27;20581;-47
2022/03/01 02:57:51;;;;;;;5.95;3.58;;;;;;;-5.60;100.00;95490.19;5111131;27;20067;-51
2022/03/01 03:00:18;;;;;;;10.52;5.05;;;;;;;-5.61;100.00;95494.47;5111226;27;20050;-50
2022/03/01 03:02:44;;;;;;;8.05;4.43;;;;;;;-5.65;100.00;95497.34;5120531;27;20054;-48
2022/03/01 03:05:12;;;;;;;8.63;4.85;;;;;;;-5.58;100.00;95504.38;5109529;27;20032;-46
2022/03/01 03:07:41;;;;;;;10.75;6.28;;;;;;;-5.52;100.00;95502.31;5111111;27;20054;-47
2022/03/01 03:10:08;;;;;;;15.98;8.25;;;;;;;-5.44;100.00;95503.34;5108058;27;20059;-47
2022/03/01 03:12:35;;;;;;;14.43;7.25;;;;;;;-5.45;100.00;95513.63;5109741;27;20053;-49
2022/03/01 03:15:02;;;;;;;12.18;7.47;;;;;;;-5.29;100.00;95529.31;5110001;27;20036;-47
2022/03/01 03:17:29;;;;;;;8.68;5.22;;;;;;;-5.24;100.00;95529.78;5113785;27;20048;-47
2022/03/01 03:19:56;;;;;;;9.27;5.60;;;;;;;-5.23;100.00;95522.97;5109749;27;20043;-48
2022/03/01 03:22:22;;;;;;;24.45;5.10;;;;;;;-5.23;100.00;95523.75;5114401;27;20144;-47
2022/03/01 03:24:49;;;;;;;10.82;5.38;;;;;;;-5.31;100.00;95521.00;5109060;27;20066;-48
2022/03/01 03:27:19;;;;;;;6.15;4.07;;;;;;;-5.31;100.00;95523.56;5108499;27;20097;-47
2022/03/01 03:29:46;;;;;;;12.35;5.93;;;;;;;-5.37;100.00;95526.53;5108263;27;20043;-46
2022/03/01 03:32:13;;;;;;;20.70;9.40;;;;;;;-5.57;100.00;95518.69;5108339;27;20485;-47
2022/03/01 03:34:40;;;;;;;17.40;8.18;;;;;;;-5.39;100.00;95536.00;5109776;27;20039;-49
2022/03/01 03:37:07;;;;;;;12.38;6.80;;;;;;;-5.36;100.00;95534.97;5109095;27;20047;-47
2022/03/01 03:39:34;;;;;;;22.40;5.43;;;;;;;-5.31;100.00;95538.78;5109499;27;20239;-49
2022/03/01 03:42:00;;;;;;;12.30;6.00;;;;;;;-5.28;100.00;95527.56;5107955;27;20047;-47
2022/03/01 03:44:27;;;;;;;9.30;6.03;;;;;;;-5.27;100.00;95532.53;5116194;27;20128;-47
2022/03/01 03:46:54;;;;;;;11.00;6.53;;;;;;;-5.27;100.00;95530.00;5109177;27;20431;-48
2022/03/01 03:49:22;;;;;;;11.48;5.40;;;;;;;-5.31;100.00;95536.25;5109708;27;20070;-47
2022/03/01 03:51:49;;;;;;;12.75;6.55;;;;;;;-5.29;100.00;95538.66;5110194;27;20047;-46
2022/03/01 03:54:16;;;;;;;15.63;6.28;;;;;;;-5.36;100.00;95540.84;5111897;27;20043;-48
2022/03/01 03:56:43;;;;;;;6.38;4.57;;;;;;;-5.47;100.00;95551.03;5111487;27;20071;-48
2022/03/01 03:59:10;;;;;;;22.60;7.70;;;;;;;-5.57;100.00;95546.59;5110093;27;20100;-48
2022/03/01 04:01:37;;;;;;;20.27;8.90;;;;;;;-5.58;100.00;95539.91;5094339;27;20043;-46
2022/03/01 04:04:04;;;;;;;15.70;6.28;;;;;;;-5.51;100.00;95542.81;5113633;27;20048;-47
2022/03/01 04:06:31;;;;;;;24.55;12.38;;;;;;;-5.51;100.00;95536.91;5109700;27;20024;-47
2022/03/01 04:08:58;;;;;;;17.45;9.02;;;;;;;-5.43;100.00;95543.03;5109349;27;20050;-47
2022/03/01 04:11:25;;;;;;;45.13;18.45;;;;;;;-5.38;100.00;95537.63;5106519;27;20059;-48
2022/03/01 04:13:52;;;;;;;25.65;11.70;;;;;;;-5.37;100.00;95541.78;5109705;27;20122;-46
2022/03/01 04:16:19;;;;;;;28.75;13.00;;;;;;;-5.36;100.00;95538.31;5110666;27;20043;-48
2022/03/01 04:18:46;;;;;;;38.15;15.93;;;;;;;-5.30;100.00;95530.22;5113488;27;20039;-49
2022/03/01 04:21:14;;;;;;;43.03;16.23;;;;;;;-5.20;100.00;95532.91;5113229;27;20051;-47
2022/03/01 04:23:40;;;;;;;22.33;11.77;;;;;;;-5.20;100.00;95538.78;5109319;27;20509;-48
2022/03/01 04:26:13;;;;;;;25.40;10.73;;;;;;;-5.15;100.00;95524.91;5107229;27;20039;-47
2022/03/01 04:28:39;;;;;;;25.80;11.55;;;;;;;-5.12;100.00;95525.47;5107185;27;20059;-49
2022/03/01 04:31:06;;;;;;;20.65;10.68;;;;;;;-5.09;100.00;95519.38;5109266;27;20475;-48
2022/03/01 04:33:33;;;;;;;16.17;7.35;;;;;;;-5.08;100.00;95521.78;5106943;27;20080;-47
2022/03/01 04:36:02;;;;;;;20.25;10.80;;;;;;;-5.05;100.00;95510.59;5116595;27;20043;-47
2022/03/01 04:38:33;;;;;;;11.13;6.20;;;;;;;-5.05;100.00;95511.38;5112903;27;20043;-47
2022/03/01 04:40:59;;;;;;;8.98;5.20;;;;;;;-5.01;100.00;95517.84;5112146;27;20043;-47
2022/03/01 04:43:26;;;;;;;12.65;7.78;;;;;;;-5.01;100.00;95527.19;5110650;27;20093;-47
2022/03/01 04:45:53;;;;;;;10.60;5.45;;;;;;;-5.02;100.00;95525.59;5108436;27;20031;-47
2022/03/01 04:48:20;;;;;;;19.52;9.18;;;;;;;-5.05;100.00;95525.81;5108135;27;20491;-48
2022/03/01 04:50:47;;;;;;;13.85;7.28;;;;;;;-5.03;100.00;95529.84;5111779;27;20040;-48
2022/03/01 04:53:14;;;;;;;10.93;5.68;;;;;;;-5.02;100.00;95516.25;5109251;27;20051;-51
2022/03/01 04:55:41;;;;;;;11.25;6.65;;;;;;;-5.02;100.00;95516.25;5107878;27;20043;-49
2022/03/01 04:58:12;;;;;;;26.67;12.05;;;;;;;-5.03;100.00;95513.81;5108546;27;20082;-47
2022/03/01 05:00:39;;;;;;;15.43;9.13;;;;;;;-5.03;100.00;95508.72;5107156;27;20523;-50
2022/03/01 05:03:06;;;;;;;26.52;10.85;;;;;;;-4.98;100.00;95531.25;5109308;27;20042;-47
2022/03/01 05:05:33;;;;;;;11.60;6.70;;;;;;;-4.98;100.00;95526.97;5102913;27;20437;-52
2022/03/01 05:08:00;;;;;;;12.27;6.00;;;;;;;-4.99;100.00;95525.34;5102414;27;20047;-50
2022/03/01 05:10:27;;;;;;;20.45;8.90;;;;;;;-4.98;100.00;95532.06;5101406;27;20047;-49
2022/03/01 05:12:58;;;;;;;14.55;7.45;;;;;;;-4.98;100.00;95537.13;5103804;27;20479;-47
2022/03/01 05:15:27;;;;;;;9.68;6.55;;;;;;;-4.95;100.00;95528.47;5104752;27;20044;-48
2022/03/01 05:17:55;;;;;;;14.35;8.38;;;;;;;-4.96;100.00;95530.19;5104899;27;20039;-47
2022/03/01 05:20:25;;;;;;;13.23;8.18;;;;;;;-5.00;100.00;95526.28;5105007;27;20035;-47
2022/03/01 05:22:53;;;;;;;18.38;8.95;;;;;;;-5.03;100.00;95529.06;5114573;27;20068;-47
2022/03/01 05:25:22;;;;;;;30.02;14.88;;;;;;;-4.97;100.00;95533.66;5104484;27;20676;-47
2022/03/01 05:27:51;;;;;;;16.15;9.32;;;;;;;-5.10;100.00;95527.91;5104953;27;20051;-47
2022/03/01 05:30:19;;;;;;;20.35;12.38;;;;;;;-5.09;100.00;95544.78;5107900;27;20133;-46
2022/03/01 05:32:48;;;;;;;24.17;12.90;;;;;;;-5.10;100.00;95538.06;5104037;27;20048;-47
2022/03/01 05:35:17;;;;;;;24.35;12.57;;;;;;;-5.10;100.00;95538.06;5111314;27;20052;-47
2022/03/01 05:37:47;;;;;;;40.28;15.20;;;;;;;-5.08;100.00;95542.09;5106492;27;20047;-47
2022/03/01 05:40:14;;;;;;;13.52;7.82;;;;;;;-5.14;100.00;95541.78;5106585;27;20061;-51
2022/03/01 05:42:41;;;;;;;17.98;9.50;;;;;;;-5.09;100.00;95544.78;5114181;27;20062;-49
2022/03/01 05:45:09;;;;;;;15.13;8.95;;;;;;;-4.96;100.00;95555.59;5106426;27;20071;-47
2022/03/01 05:47:35;;;;;;;14.48;9.02;;;;;;;-4.93;100.00;95557.91;5110007;27;20051;-49
2022/03/01 05:50:03;;;;;;;17.65;10.93;;;;;;;-4.92;100.00;95551.91;5106422;27;20035;-48
2022/03/01 05:52:31;;;;;;;19.92;10.75;;;;;;;-4.82;100.00;95568.06;5106983;27;20055;-48
2022/03/01 05:54:59;;;;;;;10.43;6.85;;;;;;;-4.82;100.00;95562.97;5112651;27;20051;-48
2022/03/01 05:57:28;;;;;;;11.95;7.00;;;;;;;-4.80;100.00;95571.28;5113107;27;20049;-48
2022/03/01 05:59:56;;;;;;;15.23;7.88;;;;;;;-4.81;100.00;95568.88;5106345;27;20100;-47
2022/03/01 06:02:24;;;;;;;14.23;5.97;;;;;;;-4.74;100.00;95567.47;5109923;27;20665;-48
2022/03/01 06:04:52;;;;;;;11.07;7.75;;;;;;;-4.71;100.00;95576.59;5105908;27;20489;-48
2022/03/01 06:07:19;;;;;;;17.92;8.95;;;;;;;-4.70;100.00;95568.03;5107203;27;20043;-46
2022/03/01 06:09:47;;;;;;;43.72;17.60;;;;;;;-4.66;100.00;95579.59;5107305;27;20040;-47
2022/03/01 06:12:14;;;;;;;53.28;24.02;;;;;;;-4.64;100.00;95567.56;5105454;27;20058;-46
2022/03/01 06:14:41;;;;;;;27.90;16.40;;;;;;;-4.48;100.00;95580.72;5112645;27;20501;-47
2022/03/01 06:17:08;;;;;;;22.27;13.15;;;;;;;-4.38;100.00;95585.06;5109323;27;20035;-47
2022/03/01 06:19:35;;;;;;;14.27;8.73;;;;;;;-4.27;100.00;95587.56;5106753;27;20062;-50
2022/03/01 06:22:04;;;;;;;16.25;8.07;;;;;;;-4.14;100.00;95588.22;5112160;27;20504;-48
2022/03/01 06:24:31;;;;;;;19.17;7.72;;;;;;;-4.15;100.00;95581.53;5106639;27;20046;-52
2022/03/01 06:26:58;;;;;;;10.90;5.95;;;;;;;-3.95;100.00;95581.69;5106205;28;20116;-50
2022/03/01 06:29:25;;;;;;;9.95;5.43;;;;;;;-3.78;100.00;95583.69;5108457;28;20050;-49
2022/03/01 06:31:56;;;;;;;11.70;5.75;;;;;;;-3.72;100.00;95578.09;5104593;27;20048;-47
2022/03/01 06:34:23;;;;;;;8.10;5.93;;;;;;;-3.52;100.00;95578.19;5106363;27;20036;-47
2022/03/01 06:36:50;;;;;;;10.55;5.40;;;;;;;-3.33;100.00;95577.47;5107859;27;20040;-47
2022/03/01 06:39:19;;;;;;;10.48;5.07;;;;;;;-3.23;100.00;95582.63;5109370;27;20048;-48
2022/03/01 06:41:46;;;;;;;13.32;6.63;;;;;;;-3.05;100.00;95576.00;5114212;27;20062;-47
2022/03/01 06:44:13;;;;;;;10.23;6.38;;;;;;;-2.89;100.00;95572.97;5106155;27;20055;-49
2022/03/01 06:46:40;;;;;;;10.68;6.32;;;;;;;-2.70;100.00;95569.69;5105565;27;20696;-47
2022/03/01 06:49:07;;;;;;;8.10;5.05;;;;;;;-2.54;100.00;95574.25;5108705;27;20055;-48
2022/03/01 06:51:34;;;;;;;7.40;4.55;;;;;;;-2.36;100.00;95579.53;5091149;28;20040;-52
2022/03/01 06:54:02;;;;;;;7.90;5.03;;;;;;;-2.20;100.00;95579.00;5108711;28;20050;-48
2022/03/01 06:56:29;;;;;;;15.50;5.38;;;;;;;-1.99;100.00;95573.78;5111029;28;20031;-49
2022/03/01 06:58:57;;;;;;;9.23;4.72;;;;;;;-1.86;100.00;95579.41;5105689;28;20366;-51
2022/03/01 07:01:23;;;;;;;14.55;8.00;;;;;;;-1.77;100.00;95573.50;5106298;28;20040;-51
2022/03/01 07:03:50;;;;;;;14.88;7.65;;;;;;;-1.65;99.68;95581.03;5108813;28;20421;-49
2022/03/01 07:06:17;;;;;;;12.00;6.63;;;;;;;-1.54;98.57;95571.44;5110417;28;20039;-46
2022/03/01 07:08:44;;;;;;;11.80;6.13;;;;;;;-1.59;97.76;95575.34;5112921;28;20040;-47
2022/03/01 07:11:11;;;;;;;11.07;6.30;;;;;;;-1.45;97.35;95577.47;5107330;28;20570;-48
2022/03/01 07:13:37;;;;;;;13.35;6.68;;;;;;;-1.45;96.28;95562.16;5106308;28;20104;-48
2022/03/01 07:16:05;;;;;;;14.02;8.07;;;;;;;-1.25;96.30;95573.13;5110878;28;20386;-48
2022/03/01 07:18:32;;;;;;;24.98;10.93;;;;;;;-1.06;96.93;95582.50;5106885;28;20054;-48
2022/03/01 07:20:59;;;;;;;14.45;7.05;;;;;;;-0.91;96.06;95584.59;5108072;28;20117;-48
2022/03/01 07:23:26;;;;;;;26.30;12.18;;;;;;;-0.77;95.99;95586.69;5113041;28;20067;-48
2022/03/01 07:25:52;;;;;;;12.13;7.90;;;;;;;-0.70;95.02;95572.38;5106176;28;20051;-49
2022/03/01 07:28:19;;;;;;;9.88;5.28;;;;;;;-0.62;95.66;95580.13;5106483;28;20093;-48
2022/03/01 07:30:46;;;;;;;18.83;7.53;;;;;;;-0.45;96.21;95585.41;5105286;28;20077;-47
2022/03/01 07:33:13;;;;;;;9.60;6.13;;;;;;;-0.31;95.80;95577.25;5104303;28;20064;-48
2022/03/01 07:35:40;;;;;;;10.85;5.50;;;;;;;-0.20;94.15;95582.19;5105179;28;20050;-47
2022/03/01 07:38:07;;;;;;;11.85;5.43;;;;;;;-0.16;92.73;95575.00;5107464;28;20055;-52
2022/03/01 07:40:33;;;;;;;8.57;4.45;;;;;;;-0.39;90.94;95577.19;5103812;27;20040;-47
2022/03/01 07:43:00;;;;;;;13.60;6.60;;;;;;;-0.26;92.02;95580.19;5109898;27;20047;-47
2022/03/01 07:45:27;;;;;;;17.88;7.68;;;;;;;-0.15;92.29;95575.81;5109706;27;20051;-48
2022/03/01 07:47:54;;;;;;;12.40;5.25;;;;;;;-0.02;92.24;95566.00;5111694;27;20035;-47
2022/03/01 07:50:21;;;;;;;8.23;4.88;;;;;;;0.15;90.70;95572.88;5109834;27;20058;-50
2022/03/01 07:52:50;;;;;;;7.05;4.53;;;;;;;0.27;88.69;95564.94;5109804;27;20122;-46
2022/03/01 07:55:17;;;;;;;8.95;4.80;;;;;;;0.36;86.48;95569.16;5109027;27;20065;-48
2022/03/01 07:57:44;;;;;;;6.47;4.25;;;;;;;0.51;85.96;95567.69;5109624;27;20035;-52
2022/03/01 08:00:12;;;;;;;10.10;4.72;;;;;;;0.66;86.37;95570.50;5109201;27;20047;-48
2022/03/01 08:02:40;;;;;;;11.20;5.30;;;;;;;0.77;84.50;95566.88;5109166;27;20054;-48
2022/03/01 08:05:09;;;;;;;11.95;5.43;;;;;;;0.94;83.59;95568.56;5108949;27;20051;-47
2022/03/01 08:07:47;;;;;;;9.45;4.22;;;;;;;0.95;83.98;95569.38;5107252;27;20563;-51
2022/03/01 08:10:14;;;;;;;7.80;5.20;;;;;;;1.06;84.01;95570.88;5109800;27;20051;-48
2022/03/01 08:12:41;;;;;;;8.55;4.85;;;;;;;1.27;84.62;95568.72;5112118;27;20055;-47
2022/03/01 08:15:09;;;;;;;9.57;4.82;;;;;;;1.40;84.43;95562.34;5111092;27;20044;-47
2022/03/01 08:17:36;;;;;;;10.93;4.47;;;;;;;1.33;83.17;95573.25;5110564;27;20501;-47
2022/03/01 08:20:03;;;;;;;8.52;4.57;;;;;;;1.37;82.37;95572.91;5111015;27;20066;-51
2022/03/01 08:22:30;;;;;;;8.85;4.38;;;;;;;1.44;82.70;95579.03;5115343;27;20058;-47
2022/03/01 08:24:57;;;;;;;3.85;2.58;;;;;;;1.05;82.40;95584.66;5110088;27;20414;-47
2022/03/01 08:27:23;;;;;;;13.68;6.40;;;;;;;0.95;84.48;95588.16;5110181;27;20051;-47
2022/03/01 08:29:52;;;;;;;71.15;26.85;;;;;;;1.11;85.01;95581.47;5110864;27;20481;-48
2022/03/01 08:32:19;;;;;;;22.23;13.32;;;;;;;1.13;85.54;95582.13;5111486;27;20055;-47
2022/03/01 08:34:46;;;;;;;9.27;5.28;;;;;;;1.16;84.86;95581.81;5089390;27;20051;-49
2022/03/01 08:37:13;;;;;;;12.70;6.05;;;;;;;1.11;83.98;95584.03;5111206;27;20116;-48
2022/03/01 08:39:39;;;;;;;14.35;7.57;;;;;;;1.21;84.33;95584.75;5110544;27;20564;-49
2022/03/01 08:42:06;;;;;;;11.02;6.30;;;;;;;1.51;85.75;95585.97;5111542;27;20127;-50
2022/03/01 08:44:33;;;;;;;8.35;5.32;;;;;;;1.87;84.52;95587.50;5112193;27;20532;-47
2022/03/01 08:47:00;;;;;;;7.55;4.80;;;;;;;2.19;83.14;95585.94;5110262;27;20051;-47
2022/03/01 08:49:27;;;;;;;9.13;5.00;;;;;;;2.32;80.19;95586.25;5109801;27;20042;-47
2022/03/01 08:51:54;;;;;;;10.25;6.00;;;;;;;2.31;79.94;95587.22;5111484;27;20120;-47
2022/03/01 08:54:21;;;;;;;10.55;5.35;;;;;;;2.46;80.12;95585.59;5111613;27;20044;-46
2022/03/01 08:56:47;;;;;;;9.43;5.13;;;;;;;2.83;81.78;95586.84;5110008;27;20064;-53
2022/03/01 08:59:14;;;;;;;13.73;8.98;;;;;;;3.23;80.95;95587.72;5110639;27;20051;-49
2022/03/01 09:01:41;;;;;;;10.10;6.07;;;;;;;3.46;78.75;95576.69;5111631;27;20078;-49
2022/03/01 09:04:08;;;;;;;10.10;5.80;;;;;;;3.53;75.83;95581.94;5110606;27;20054;-47
2022/03/01 09:06:35;;;;;;;8.88;5.00;;;;;;;3.32;76.72;95565.31;5112529;27;20508;-47
2022/03/01 09:09:02;;;;;;;8.48;4.22;;;;;;;3.60;76.00;95557.94;5104384;27;20099;-51
2022/03/01 09:11:29;;;;;;;4.32;2.83;;;;;;;3.32;73.65;95574.81;5105851;27;20043;-47
2022/03/01 09:13:56;;;;;;;22.27;10.13;;;;;;;3.16;76.01;95571.31;5112880;27;20544;-51
2022/03/01 09:16:23;;;;;;;23.98;11.77;;;;;;;3.36;74.46;95568.34;5112654;27;20515;-47
2022/03/01 09:18:49;;;;;;;10.35;5.45;;;;;;;3.54;71.43;95576.63;5110780;27;20071;-47
2022/03/01 09:21:17;;;;;;;11.25;6.18;;;;;;;3.66;72.30;95577.06;5087174;27;20086;-48
2022/03/01 09:23:44;;;;;;;9.20;5.45;;;;;;;3.81;74.38;95580.50;5113135;27;20066;-49
2022/03/01 09:26:11;;;;;;;7.78;3.63;;;;;;;3.73;68.87;95587.50;5109690;27;20496;-47
2022/03/01 09:28:38;;;;;;;8.35;4.30;;;;;;;3.68;65.37;95589.78;5113179;27;20047;-47
2022/03/01 09:31:05;;;;;;;4.60;2.85;;;;;;;3.55;64.24;95605.78;5110505;27;20597;-47
2022/03/01 09:33:33;;;;;;;7.38;3.40;;;;;;;3.43;61.61;95597.63;5111355;27;20473;-47
2022/03/01 09:36:01;;;;;;;6.65;3.40;;;;;;;3.30;62.89;95592.22;5108981;27;20077;-51
2022/03/01 09:38:27;;;;;;;7.10;3.47;;;;;;;3.28;63.43;95588.97;5110154;27;20112;-47
2022/03/01 09:40:55;;;;;;;5.50;3.22;;;;;;;3.23;60.97;95590.28;5112398;27;20035;-48
2022/03/01 09:43:21;;;;;;;11.18;4.35;;;;;;;3.17;59.94;95588.38;5113453;27;20049;-49
2022/03/01 09:45:48;;;;;;;5.63;3.33;;;;;;;3.22;62.53;95586.13;5110357;27;20054;-49
2022/03/01 09:48:15;;;;;;;7.13;3.55;;;;;;;3.19;61.46;95586.44;5109463;27;20055;-47
2022/03/01 09:50:45;;;;;;;5.90;4.03;;;;;;;3.29;61.05;95590.59;5111236;27;20621;-48
2022/03/01 09:53:12;;;;;;;7.35;2.97;;;;;;;3.38;61.79;95584.44;5111785;27;20074;-50
2022/03/01 09:55:40;;;;;;;5.82;3.90;;;;;;;3.51;62.05;95583.91;5115879;27;20051;-48
2022/03/01 09:58:07;;;;;;;5.25;2.90;;;;;;;3.57;60.45;95589.19;5092591;27;21024;-51
2022/03/01 10:00:35;;;;;;;4.22;2.67;;;;;;;3.73;59.76;95577.22;5111654;27;20042;-47
2022/03/01 10:03:02;;;;;;;7.20;4.18;;;;;;;3.81;59.04;95579.72;5110529;27;20043;-46
2022/03/01 10:05:38;;;;;;;11.93;5.50;;;;;;;3.98;59.05;95583.81;5111895;27;20067;-48
2022/03/01 10:08:10;;;;;;;12.57;7.28;;;;;;;4.15;58.59;95574.19;5111220;27;20031;-48
2022/03/01 10:10:49;;;;;;;20.75;7.15;;;;;;;4.24;55.54;95580.09;5111272;27;20088;-48
2022/03/01 10:13:25;;;;;;;4.90;2.70;;;;;;;4.32;54.35;95577.44;5110553;27;20051;-47
2022/03/01 10:16:15;;;;;;;6.82;3.20;;;;;;;4.33;55.01;95576.47;5093757;27;20051;-49
2022/03/01 10:18:52;;;;;;;5.47;3.22;;;;;;;4.58;53.39;95576.28;5115121;27;20046;-46
2022/03/01 10:21:21;;;;;;;7.65;4.00;;;;;;;4.77;54.91;95569.78;5109458;27;20044;-48
2022/03/01 10:23:51;;;;;;;8.75;5.47;;;;;;;5.08;51.91;95566.28;5104191;27;20052;-47
2022/03/01 10:26:29;;;;;;;6.10;3.47;;;;;;;5.36;51.61;95566.41;5108157;27;20485;-47
2022/03/01 10:28:58;;;;;;;3.72;2.42;;;;;;;5.70;49.19;95565.03;5106509;27;20047;-47
2022/03/01 10:31:28;;;;;;;6.72;2.80;;;;;;;5.92;48.71;95564.09;5110024;27;20535;-47
2022/03/01 10:34:02;;;;;;;4.53;2.30;;;;;;;6.06;46.27;95561.66;5108895;27;20043;-48
2022/03/01 10:36:32;;;;;;;6.70;2.55;;;;;;;6.16;47.18;95556.97;5109563;27;20477;-47
2022/03/01 10:39:06;;;;;;;4.72;2.40;;;;;;;6.09;47.64;95558.72;5111302;27;20043;-53
2022/03/01 10:41:36;;;;;;;4.95;3.30;;;;;;;6.02;47.27;95552.66;5114556;27;20418;-51
2022/03/01 10:44:05;;;;;;;5.22;2.75;;;;;;;6.12;46.45;95553.13;5105400;27;20043;-52
2022/03/01 10:46:39;;;;;;;3.58;2.40;;;;;;;6.25;45.39;95548.09;5107094;28;20112;-50
2022/03/01 10:49:09;;;;;;;4.55;2.08;;;;;;;6.25;44.79;95550.69;5108709;27;20119;-47
2022/03/01 10:51:57;;;;;;;6.97;4.45;;;;;;;6.24;45.19;95541.31;5107299;27;20062;-45
2022/03/01 10:54:32;;;;;;;6.85;2.95;;;;;;;6.29;47.45;95544.16;5105118;28;20051;-47
2022/03/01 10:57:01;;;;;;;4.10;2.33;;;;;;;6.43;46.18;95539.09;5106772;27;20093;-46
2022/03/01 10:59:31;;;;;;;3.80;2.30;;;;;;;6.53;45.65;95539.56;5109093;28;20103;-47
2022/03/01 11:01:58;;;;;;;5.18;2.60;;;;;;;6.58;46.50;95537.22;5111598;28;20052;-45
2022/03/01 11:04:27;;;;;;;6.20;3.08;;;;;;;6.65;44.79;95537.25;5108307;28;20039;-45
2022/03/01 11:06:56;;;;;;;5.07;2.95;;;;;;;6.60;44.85;95540.41;5102437;28;20075;-47
2022/03/01 11:09:25;;;;;;;17.67;7.63;;;;;;;6.44;46.09;95535.50;5109081;28;20505;-45
2022/03/01 11:11:53;;;;;;;6.45;4.18;;;;;;;6.24;49.32;95530.97;5104011;27;20544;-46
2022/03/01 11:14:29;;;;;;;5.38;3.00;;;;;;;6.04;46.41;95525.63;5104195;28;20064;-45
2022/03/01 11:17:16;;;;;;;4.90;2.92;;;;;;;5.41;51.26;95522.75;5109419;27;20043;-44
2022/03/01 11:19:58;;;;;;;6.85;3.85;;;;;;;4.63;56.17;95517.19;5111695;27;20047;-46
2022/03/01 11:22:40;;;;;;;5.25;3.47;;;;;;;4.10;56.66;95516.38;5109555;27;20649;-45
2022/03/01 11:25:07;;;;;;;3.25;2.47;;;;;;;3.59;57.69;95515.13;5112670;27;20036;-49
2022/03/01 11:27:44;;;;;;;12.50;4.30;;;;;;;3.20;61.25;95504.84;5111653;27;20059;-51
2022/03/01 11:30:12;;;;;;;9.02;4.15;;;;;;;3.10;64.74;95499.09;5113481;27;20104;-48